createdAt,value
2023-02-05T00:00:39.493Z,19.58
2023-02-05T00:03:06.162Z,19.47
2023-02-05T00:05:33.087Z,19.45
2023-02-05T00:07:59.826Z,19.59
2023-02-05T00:10:26.432Z,19.41
2023-02-05T00:12:53.034Z,19.47
2023-02-05T00:15:19.701Z,19.42
2023-02-05T00:17:46.332Z,19.33
2023-02-05T00:20:12.939Z,19.37
2023-02-05T00:22:39.585Z,19.36
2023-02-05T00:25:06.322Z,19.35
2023-02-05T00:27:33.538Z,19.53
2023-02-05T00:30:00.138Z,19.50
2023-02-05T00:32:26.787Z,19.58
2023-02-05T00:34:53.389Z,19.67
2023-02-05T00:37:20.001Z,19.58
2023-02-05T00:39:46.679Z,19.53
2023-02-05T00:42:13.305Z,19.47
2023-02-05T00:44:39.939Z,19.34
2023-02-05T00:47:06.763Z,19.26
2023-02-05T00:49:33.358Z,19.30
2023-02-05T00:51:59.942Z,19.29
2023-02-05T00:54:26.556Z,19.24
2023-02-05T00:56:53.162Z,19.23
2023-02-05T00:59:19.820Z,19.26
2023-02-05T01:01:46.477Z,19.40
2023-02-05T01:04:16.219Z,19.39
2023-02-05T01:06:42.823Z,19.34
2023-02-05T01:09:09.437Z,19.37
2023-02-05T01:11:36.052Z,19.26
2023-02-05T01:14:02.730Z,19.21
2023-02-05T01:16:29.358Z,19.19
2023-02-05T01:18:56.838Z,19.18
2023-02-05T01:21:24.959Z,19.34
2023-02-05T01:23:52.112Z,19.33
2023-02-05T01:26:18.753Z,19.32
2023-02-05T01:28:45.534Z,19.36
2023-02-05T01:31:12.312Z,19.24
2023-02-05T01:33:38.959Z,19.30
2023-02-05T01:36:05.973Z,19.23
2023-02-05T01:38:32.595Z,19.16
2023-02-05T01:41:00.023Z,19.17
2023-02-05T01:43:26.639Z,19.10
2023-02-05T01:46:05.330Z,19.09
2023-02-05T01:48:37.874Z,19.09
2023-02-05T01:51:06.028Z,19.10
2023-02-05T01:53:33.650Z,19.08
2023-02-05T01:56:12.760Z,19.24
2023-02-05T01:58:48.626Z,19.22
2023-02-05T02:01:15.111Z,19.16
2023-02-05T02:03:41.838Z,19.16
2023-02-05T02:06:08.634Z,19.11
2023-02-05T02:08:35.255Z,19.10
2023-02-05T02:11:03.249Z,19.09
2023-02-05T02:13:32.267Z,19.03
2023-02-05T02:15:58.947Z,19.01
2023-02-05T02:18:28.258Z,19.05
2023-02-05T02:21:19.673Z,18.94
2023-02-05T02:23:58.301Z,19.04
2023-02-05T02:26:59.002Z,19.01
2023-02-05T02:29:33.017Z,18.97
2023-02-05T02:32:32.184Z,18.97
2023-02-05T02:35:07.248Z,19.02
2023-02-05T02:37:37.380Z,18.91
2023-02-05T02:40:10.532Z,18.93
2023-02-05T02:42:43.324Z,18.90
2023-02-05T02:45:10.311Z,18.88
2023-02-05T02:47:38.831Z,18.93
2023-02-05T02:50:09.474Z,18.91
2023-02-05T02:52:37.498Z,18.87
2023-02-05T02:55:07.960Z,18.96
2023-02-05T02:57:35.581Z,18.98
2023-02-05T03:00:02.516Z,18.98
2023-02-05T03:02:31.168Z,18.92
2023-02-05T03:05:00.621Z,19.01
2023-02-05T03:07:42.735Z,19.10
2023-02-05T03:10:42.638Z,19.10
2023-02-05T03:13:10.211Z,19.12
2023-02-05T03:15:43.818Z,19.15
2023-02-05T03:18:10.976Z,19.27
2023-02-05T03:21:00.430Z,19.35
2023-02-05T03:23:27.300Z,19.38
2023-02-05T03:25:53.925Z,19.44
2023-02-05T03:28:20.557Z,19.46
2023-02-05T03:31:05.584Z,19.53
2023-02-05T03:33:52.416Z,19.51
2023-02-05T03:36:27.618Z,19.60
2023-02-05T03:39:03.419Z,19.66
2023-02-05T03:41:52.884Z,19.79
2023-02-05T03:44:49.018Z,19.82
2023-02-05T03:47:23.041Z,19.98
2023-02-05T03:49:59.267Z,20.06
2023-02-05T03:52:29.222Z,20.12
2023-02-05T03:55:15.726Z,20.21
2023-02-05T03:58:02.908Z,20.21
2023-02-05T04:00:29.579Z,20.22
2023-02-05T04:02:56.264Z,20.23
2023-02-05T04:05:23.108Z,20.15
2023-02-05T04:07:50.360Z,20.06
2023-02-05T04:10:17.548Z,20.13
2023-02-05T04:12:46.900Z,20.21
2023-02-05T04:15:13.589Z,19.96
2023-02-05T04:17:40.513Z,19.78
2023-02-05T04:20:07.843Z,19.54
2023-02-05T04:22:34.463Z,19.38
2023-02-05T04:25:01.121Z,19.21
2023-02-05T04:27:27.733Z,19.10
2023-02-05T04:29:54.353Z,18.99
2023-02-05T04:32:21.006Z,18.97
2023-02-05T04:34:47.648Z,18.87
2023-02-05T04:37:14.356Z,18.83
2023-02-05T04:39:41.012Z,18.77
2023-02-05T04:42:07.668Z,18.73
2023-02-05T04:44:34.345Z,18.68
2023-02-05T04:47:00.969Z,18.56
2023-02-05T04:49:27.678Z,18.51
2023-02-05T04:51:54.270Z,18.50
2023-02-05T04:54:20.888Z,18.44
2023-02-05T04:56:47.517Z,18.48
2023-02-05T04:59:14.184Z,18.43
2023-02-05T05:01:40.807Z,18.43
2023-02-05T05:04:07.612Z,18.41
2023-02-05T05:06:34.209Z,18.35
2023-02-05T05:09:00.901Z,18.34
2023-02-05T05:11:27.574Z,18.40
2023-02-05T05:13:54.200Z,18.36
2023-02-05T05:16:20.833Z,18.31
2023-02-05T05:18:47.480Z,18.35
2023-02-05T05:21:14.073Z,18.30
2023-02-05T05:23:40.730Z,18.29
2023-02-05T05:26:08.610Z,18.24
2023-02-05T05:28:35.452Z,18.18
2023-02-05T05:31:19.576Z,18.18
2023-02-05T05:33:46.483Z,18.25
2023-02-05T05:36:13.213Z,18.17
2023-02-05T05:38:39.937Z,18.24
2023-02-05T05:41:25.392Z,18.18
2023-02-05T05:43:56.043Z,18.17
2023-02-05T05:46:24.676Z,18.17
2023-02-05T05:48:52.579Z,18.09
2023-02-05T05:51:19.411Z,18.08
2023-02-05T05:53:46.149Z,18.06
2023-02-05T05:56:13.122Z,17.97
2023-02-05T05:58:39.732Z,17.90
2023-02-05T06:01:10.119Z,17.89
2023-02-05T06:03:36.767Z,17.88
2023-02-05T06:06:04.287Z,17.86
2023-02-05T06:08:31.015Z,17.84
2023-02-05T06:10:57.653Z,17.84
2023-02-05T06:13:24.569Z,17.87
2023-02-05T06:15:51.234Z,17.91
2023-02-05T06:18:18.205Z,17.88
2023-02-05T06:20:45.009Z,17.89
2023-02-05T06:23:11.601Z,17.88
2023-02-05T06:25:38.245Z,17.91
2023-02-05T06:28:05.267Z,17.88
2023-02-05T06:30:31.949Z,17.88
2023-02-05T06:32:58.617Z,17.87
2023-02-05T06:35:25.205Z,17.84
2023-02-05T06:37:51.809Z,17.82
2023-02-05T06:40:23.142Z,17.78
2023-02-05T06:42:49.824Z,17.74
2023-02-05T06:45:16.480Z,17.74
2023-02-05T06:47:43.213Z,17.71
2023-02-05T06:50:10.077Z,17.71
2023-02-05T06:52:36.657Z,17.72
2023-02-05T06:55:03.224Z,17.70
2023-02-05T06:57:31.863Z,17.71
2023-02-05T06:59:58.494Z,17.64
2023-02-05T07:02:25.170Z,17.63
2023-02-05T07:04:51.783Z,17.64
2023-02-05T07:07:18.527Z,17.62
2023-02-05T07:09:45.203Z,17.57
2023-02-05T07:12:11.837Z,17.59
2023-02-05T07:14:41.416Z,17.57
2023-02-05T07:17:08.487Z,17.56
2023-02-05T07:19:38.673Z,17.55
2023-02-05T07:22:05.417Z,17.50
2023-02-05T07:24:32.257Z,17.53
2023-02-05T07:26:58.850Z,17.55
2023-02-05T07:29:25.444Z,17.50
2023-02-05T07:31:54.924Z,17.49
2023-02-05T07:34:21.567Z,17.41
2023-02-05T07:36:53.957Z,17.48
2023-02-05T07:39:20.637Z,17.39
2023-02-05T07:41:47.231Z,17.43
2023-02-05T07:44:14.026Z,17.40
2023-02-05T07:46:40.754Z,17.37
2023-02-05T07:49:07.407Z,17.35
2023-02-05T07:51:35.366Z,17.34
2023-02-05T07:54:06.749Z,17.35
2023-02-05T07:56:33.443Z,17.35
2023-02-05T07:59:00.030Z,17.29
2023-02-05T08:01:26.715Z,17.32
2023-02-05T08:03:53.355Z,17.35
2023-02-05T08:06:20.124Z,17.22
2023-02-05T08:08:46.767Z,17.20
2023-02-05T08:11:14.980Z,17.23
2023-02-05T08:13:42.124Z,17.21
2023-02-05T08:16:08.947Z,17.16
2023-02-05T08:18:35.784Z,17.14
2023-02-05T08:21:02.437Z,17.12
2023-02-05T08:23:29.034Z,17.12
2023-02-05T08:25:58.729Z,17.12
2023-02-05T08:28:26.183Z,17.11
2023-02-05T08:30:52.938Z,17.06
2023-02-05T08:33:19.683Z,17.08
2023-02-05T08:35:46.402Z,17.18
2023-02-05T08:38:13.110Z,17.12
2023-02-05T08:40:39.721Z,17.12
2023-02-05T08:43:08.562Z,17.08
2023-02-05T08:45:35.561Z,17.08
2023-02-05T08:48:05.521Z,17.00
2023-02-05T08:50:32.327Z,17.01
2023-02-05T08:52:59.133Z,17.03
2023-02-05T08:55:27.838Z,17.06
2023-02-05T08:57:55.481Z,17.02
2023-02-05T09:00:22.225Z,17.05
2023-02-05T09:02:51.433Z,17.00
2023-02-05T09:05:18.348Z,17.05
2023-02-05T09:07:47.755Z,17.08
2023-02-05T09:10:14.333Z,17.13
2023-02-05T09:12:41.016Z,17.20
2023-02-05T09:15:08.154Z,17.26
2023-02-05T09:17:34.821Z,17.23
2023-02-05T09:20:01.535Z,17.17
2023-02-05T09:22:28.225Z,17.32
2023-02-05T09:24:54.800Z,17.28
2023-02-05T09:27:23.888Z,17.33
2023-02-05T09:29:50.485Z,17.33
2023-02-05T09:32:22.435Z,17.18
2023-02-05T09:34:51.857Z,17.20
2023-02-05T09:37:18.606Z,17.17
2023-02-05T09:42:53.216Z,17.14
2023-02-05T09:45:36.213Z,17.11
2023-02-05T09:48:39.786Z,17.00
2023-02-05T09:51:10.067Z,16.94
2023-02-05T09:53:39.857Z,17.00
2023-02-05T09:56:07.209Z,17.00
2023-02-05T09:58:39.587Z,17.05
2023-02-05T10:01:07.573Z,16.88
2023-02-05T10:03:37.069Z,16.97
2023-02-05T10:06:09.612Z,16.98
2023-02-05T10:09:02.464Z,17.05
2023-02-05T10:11:44.922Z,16.96
2023-02-05T10:14:30.322Z,16.86
2023-02-05T10:17:18.269Z,16.91
2023-02-05T10:20:14.101Z,16.94
2023-02-05T10:22:46.326Z,16.98
2023-02-05T10:25:58.706Z,16.94
2023-02-05T10:28:58.554Z,16.87
2023-02-05T10:31:42.168Z,16.91
2023-02-05T10:34:38.241Z,16.83
2023-02-05T10:37:09.278Z,16.77
2023-02-05T10:39:35.843Z,16.75
2023-02-05T10:42:29.750Z,16.83
2023-02-05T10:45:11.781Z,16.76
2023-02-05T10:48:07.450Z,16.63
2023-02-05T10:50:48.343Z,16.67
2023-02-05T10:53:20.834Z,16.70
2023-02-05T10:55:47.570Z,16.61
2023-02-05T10:58:51.864Z,16.77
2023-02-05T11:01:39.806Z,16.92
2023-02-05T11:04:15.408Z,17.07
2023-02-05T11:06:46.404Z,16.94
2023-02-05T11:09:39.379Z,17.15
2023-02-05T11:12:16.438Z,16.87
2023-02-05T11:14:46.141Z,16.95
2023-02-05T11:17:32.176Z,16.99
2023-02-05T11:20:06.306Z,17.03
2023-02-05T11:22:36.663Z,17.22
2023-02-05T11:25:06.260Z,17.02
2023-02-05T11:27:37.632Z,16.90
2023-02-05T11:30:50.467Z,17.04
2023-02-05T11:33:24.495Z,16.91
2023-02-05T11:35:54.110Z,16.88
2023-02-05T11:38:30.558Z,17.02
2023-02-05T11:41:02.867Z,16.84
2023-02-05T11:43:51.444Z,16.78
2023-02-05T11:46:22.788Z,16.79
2023-02-05T11:48:58.576Z,16.53
2023-02-05T11:51:41.781Z,16.76
2023-02-05T11:54:21.659Z,16.90
2023-02-05T11:57:07.915Z,16.93
2023-02-05T11:59:34.804Z,16.98
2023-02-05T12:02:28.563Z,16.77
2023-02-05T12:05:11.837Z,16.92
2023-02-05T12:08:03.596Z,16.78
2023-02-05T12:11:08.448Z,16.69
2023-02-05T12:13:43.613Z,16.71
2023-02-05T12:16:30.142Z,16.62
2023-02-05T12:19:19.716Z,16.63
2023-02-05T12:21:46.196Z,16.77
2023-02-05T12:24:23.271Z,16.68
2023-02-05T12:26:50.810Z,16.67
2023-02-05T12:29:51.407Z,16.79
2023-02-05T12:32:24.044Z,16.58
2023-02-05T12:35:26.688Z,16.69
2023-02-05T12:38:03.581Z,16.72
2023-02-05T12:40:36.193Z,16.66
2023-02-05T12:43:04.193Z,16.64
2023-02-05T12:45:37.129Z,16.56
2023-02-05T12:48:26.141Z,16.53
2023-02-05T12:51:18.409Z,16.65
2023-02-05T12:54:01.158Z,16.58
2023-02-05T12:56:36.980Z,16.68
2023-02-05T12:59:05.583Z,16.75
2023-02-05T13:01:42.354Z,16.73
2023-02-05T13:04:19.403Z,16.74
2023-02-05T13:06:51.769Z,16.71
2023-02-05T13:09:24.694Z,16.82
2023-02-05T13:12:01.386Z,16.78
2023-02-05T13:14:43.001Z,16.82
2023-02-05T13:17:26.547Z,16.87
2023-02-05T13:19:56.922Z,16.88
2023-02-05T13:22:45.514Z,16.94
2023-02-05T13:25:38.244Z,17.01
2023-02-05T13:28:42.716Z,17.04
2023-02-05T13:31:21.725Z,17.01
2023-02-05T13:33:48.582Z,16.98
2023-02-05T13:36:47.964Z,17.14
2023-02-05T13:39:42.135Z,17.12
2023-02-05T13:42:14.540Z,17.18
2023-02-05T13:45:38.971Z,17.19
2023-02-05T13:48:48.123Z,17.23
2023-02-05T13:51:38.938Z,17.22
2023-02-05T13:54:44.229Z,17.20
2023-02-05T13:57:19.734Z,17.24
2023-02-05T13:59:51.553Z,17.12
2023-02-05T14:02:35.363Z,17.12
2023-02-05T14:05:02.241Z,17.03
2023-02-05T14:07:34.142Z,17.05
2023-02-05T14:10:02.491Z,17.07
2023-02-05T14:12:34.120Z,17.07
2023-02-05T14:15:23.230Z,17.04
2023-02-05T14:17:49.701Z,17.04
2023-02-05T14:20:25.455Z,17.08
2023-02-05T14:22:52.636Z,16.97
2023-02-05T14:25:45.064Z,17.11
2023-02-05T14:28:31.486Z,17.17
2023-02-05T14:30:59.120Z,17.12
2023-02-05T14:33:32.654Z,17.09
2023-02-05T14:35:59.193Z,16.96
2023-02-05T14:38:32.328Z,17.01
2023-02-05T14:41:12.788Z,17.03
2023-02-05T14:43:40.461Z,17.02
2023-02-05T14:46:20.425Z,16.95
2023-02-05T14:48:47.290Z,16.97
2023-02-05T14:51:29.428Z,17.02
2023-02-05T14:54:14.387Z,16.97
2023-02-05T14:56:46.779Z,16.94
2023-02-05T14:59:31.425Z,16.92
2023-02-05T15:01:59.440Z,16.91
2023-02-05T15:04:43.026Z,16.98
2023-02-05T15:07:12.859Z,17.02
2023-02-05T15:09:44.322Z,16.95
2023-02-05T15:12:32.323Z,16.94
2023-02-05T15:14:59.015Z,16.87
2023-02-05T15:17:35.729Z,16.98
2023-02-05T15:20:05.913Z,16.96
2023-02-05T15:22:41.128Z,16.97
2023-02-05T15:25:29.518Z,16.97
2023-02-05T15:27:59.307Z,16.99
2023-02-05T15:30:28.487Z,16.94
2023-02-05T15:33:03.932Z,16.93
2023-02-05T15:35:30.611Z,16.92
2023-02-05T15:38:17.353Z,16.88
2023-02-05T15:40:43.998Z,16.94
2023-02-05T15:43:19.669Z,16.94
2023-02-05T15:45:46.278Z,16.93
2023-02-05T15:48:14.450Z,16.93
2023-02-05T15:50:56.204Z,16.80
2023-02-05T15:53:54.207Z,16.89
2023-02-05T15:56:20.691Z,16.80
2023-02-05T15:58:53.892Z,16.97
2023-02-05T16:01:29.751Z,16.92
2023-02-05T16:03:56.230Z,16.97
2023-02-05T16:06:24.001Z,16.88
2023-02-05T16:08:52.472Z,16.94
2023-02-05T16:11:35.065Z,16.93
2023-02-05T16:14:13.641Z,16.82
2023-02-05T16:17:00.587Z,16.90
2023-02-05T16:19:52.153Z,16.88
2023-02-05T16:22:30.911Z,16.82
2023-02-05T16:24:59.125Z,16.90
2023-02-05T16:27:37.878Z,16.85
2023-02-05T16:30:08.051Z,16.83
2023-02-05T16:32:39.336Z,16.83
2023-02-05T16:35:12.892Z,16.83
2023-02-05T16:37:39.524Z,16.87
2023-02-05T16:40:07.020Z,16.86
2023-02-05T16:42:37.282Z,16.81
2023-02-05T16:45:13.201Z,16.82
2023-02-05T16:47:39.827Z,16.76
2023-02-05T16:50:38.363Z,16.79
2023-02-05T16:53:13.628Z,16.77
2023-02-05T16:55:42.264Z,16.76
2023-02-05T16:58:15.246Z,16.79
2023-02-05T17:00:41.907Z,16.80
2023-02-05T17:03:16.543Z,16.84
2023-02-05T17:05:44.413Z,16.74
2023-02-05T17:08:12.419Z,16.74
2023-02-05T17:10:52.849Z,16.74
2023-02-05T17:13:39.475Z,16.76
2023-02-05T17:16:25.789Z,16.74
2023-02-05T17:18:58.113Z,16.70
2023-02-05T17:21:35.291Z,16.79
2023-02-05T17:24:06.317Z,16.83
2023-02-05T17:26:38.057Z,16.78
2023-02-05T17:29:08.532Z,16.76
2023-02-05T17:31:39.858Z,16.76
2023-02-05T17:34:06.815Z,16.81
2023-02-05T17:36:33.449Z,16.77
2023-02-05T17:39:00.033Z,16.78
2023-02-05T17:41:47.474Z,16.80
2023-02-05T17:44:15.730Z,16.85
2023-02-05T17:46:46.476Z,16.84
2023-02-05T17:49:13.072Z,16.88
2023-02-05T17:51:42.392Z,16.82
2023-02-05T17:54:16.954Z,16.88
2023-02-05T17:56:44.708Z,16.85
2023-02-05T17:59:17.988Z,16.90
2023-02-05T18:01:45.509Z,16.87
2023-02-05T18:04:13.137Z,16.82
2023-02-05T18:06:39.933Z,16.90
2023-02-05T18:09:09.801Z,16.80
2023-02-05T18:11:38.309Z,16.80
2023-02-05T18:14:08.584Z,16.78
2023-02-05T18:16:43.448Z,16.70
2023-02-05T18:19:10.377Z,16.77
2023-02-05T18:21:37.072Z,16.67
2023-02-05T18:24:04.044Z,16.77
2023-02-05T18:26:31.082Z,16.63
2023-02-05T18:28:58.067Z,16.64
2023-02-05T18:31:24.737Z,16.73
2023-02-05T18:33:52.731Z,16.75
2023-02-05T18:36:19.326Z,16.71
2023-02-05T18:38:45.971Z,16.68
2023-02-05T18:41:18.366Z,16.63
2023-02-05T18:43:50.775Z,16.72
2023-02-05T18:46:18.101Z,16.68
2023-02-05T18:48:51.366Z,16.68
2023-02-05T18:51:19.448Z,16.56
2023-02-05T18:53:47.354Z,16.56
2023-02-05T18:56:16.197Z,16.67
2023-02-05T18:58:43.387Z,16.62
2023-02-05T19:01:10.810Z,16.54
2023-02-05T19:03:38.047Z,16.47
2023-02-05T19:06:05.496Z,16.52
2023-02-05T19:08:32.125Z,16.59
2023-02-05T19:10:58.889Z,16.43
2023-02-05T19:13:25.618Z,16.47
2023-02-05T19:15:53.537Z,16.45
2023-02-05T19:18:20.220Z,16.50
2023-02-05T19:20:48.692Z,16.46
2023-02-05T19:23:15.601Z,16.37
2023-02-05T19:25:42.256Z,16.38
2023-02-05T19:28:09.378Z,16.42
2023-02-05T19:30:36.733Z,16.35
2023-02-05T19:33:03.562Z,16.28
2023-02-05T19:35:30.159Z,16.36
2023-02-05T19:37:57.468Z,16.34
2023-02-05T19:40:24.056Z,16.34
2023-02-05T19:42:52.353Z,16.28
2023-02-05T19:45:19.055Z,16.26
2023-02-05T19:47:45.700Z,16.27
2023-02-05T19:50:12.277Z,16.17
2023-02-05T19:52:38.866Z,16.38
2023-02-05T19:55:06.036Z,16.30
2023-02-05T19:57:33.392Z,16.28
2023-02-05T20:00:00.112Z,16.33
2023-02-05T20:02:28.054Z,16.27
2023-02-05T20:04:54.790Z,16.28
2023-02-05T20:07:21.357Z,16.19
2023-02-05T20:09:49.465Z,16.27
2023-02-05T20:12:16.028Z,16.24
2023-02-05T20:14:42.632Z,16.37
2023-02-05T20:17:09.258Z,16.25
2023-02-05T20:19:35.966Z,16.30
2023-02-05T20:22:02.614Z,16.17
2023-02-05T20:24:29.233Z,16.27
2023-02-05T20:26:56.852Z,16.27
2023-02-05T20:29:42.270Z,16.15
2023-02-05T20:32:09.345Z,16.09
2023-02-05T20:34:36.779Z,16.17
2023-02-05T20:37:05.258Z,16.22
2023-02-05T20:39:34.536Z,16.19
2023-02-05T20:42:01.197Z,16.04
2023-02-05T20:44:29.529Z,15.95
2023-02-05T20:46:56.244Z,16.01
2023-02-05T20:49:23.007Z,15.97
2023-02-05T20:51:49.700Z,16.04
2023-02-05T20:54:16.430Z,16.05
2023-02-05T20:56:43.085Z,15.99
2023-02-05T20:59:10.893Z,15.97
2023-02-05T21:01:38.247Z,15.91
2023-02-05T21:04:05.623Z,15.92
2023-02-05T21:06:34.686Z,15.85
2023-02-05T21:09:01.317Z,15.97
2023-02-05T21:11:28.837Z,15.89
2023-02-05T21:13:55.742Z,15.85
2023-02-05T21:16:23.101Z,15.84
2023-02-05T21:18:50.101Z,15.85
2023-02-05T21:21:22.117Z,15.80
2023-02-05T21:23:48.926Z,15.99
2023-02-05T21:26:35.305Z,15.75
2023-02-05T21:29:02.507Z,15.84
2023-02-05T21:31:36.183Z,15.77
2023-02-05T21:34:03.577Z,15.77
2023-02-05T21:36:30.345Z,15.76
2023-02-05T21:38:57.145Z,15.75
2023-02-05T21:41:23.760Z,15.72
2023-02-05T21:43:51.245Z,15.76
2023-02-05T21:46:17.846Z,15.70
2023-02-05T21:48:47.647Z,15.72
2023-02-05T21:51:14.636Z,15.69
2023-02-05T21:53:41.242Z,15.69
2023-02-05T21:56:10.111Z,15.68
2023-02-05T21:58:38.332Z,15.68
2023-02-05T22:01:27.566Z,15.63
2023-02-05T22:04:01.863Z,15.64
2023-02-05T22:06:30.298Z,15.61
2023-02-05T22:08:59.299Z,15.62
2023-02-05T22:11:26.573Z,15.56
2023-02-05T22:13:53.771Z,15.58
2023-02-05T22:16:22.082Z,15.64
2023-02-05T22:18:48.806Z,15.55
2023-02-05T22:21:23.080Z,15.61
2023-02-05T22:23:50.690Z,15.56
2023-02-05T22:26:18.613Z,15.58
2023-02-05T22:28:45.537Z,15.61
2023-02-05T22:31:13.863Z,15.56
2023-02-05T22:33:41.176Z,15.60
2023-02-05T22:36:08.683Z,15.58
2023-02-05T22:38:36.541Z,15.58
2023-02-05T22:41:17.336Z,15.55
2023-02-05T22:43:44.002Z,15.65
2023-02-05T22:46:13.155Z,15.61
2023-02-05T22:48:41.926Z,15.61
2023-02-05T22:51:10.360Z,15.58
2023-02-05T22:53:37.072Z,15.58
2023-02-05T22:56:04.886Z,15.61
2023-02-05T22:58:31.642Z,15.60
2023-02-05T23:00:58.608Z,15.58
2023-02-05T23:03:25.360Z,15.63
2023-02-05T23:05:52.104Z,15.60
2023-02-05T23:08:18.703Z,15.57
2023-02-05T23:10:45.918Z,15.60
2023-02-05T23:13:12.622Z,15.58
2023-02-05T23:15:39.206Z,15.60
2023-02-05T23:18:05.919Z,15.58
2023-02-05T23:20:32.519Z,15.58
2023-02-05T23:22:59.131Z,15.63
2023-02-05T23:25:25.708Z,15.60
2023-02-05T23:27:52.353Z,15.60
2023-02-05T23:30:19.140Z,15.58
2023-02-05T23:32:45.853Z,15.69
2023-02-05T23:35:12.460Z,15.61
2023-02-05T23:37:39.270Z,15.54
2023-02-05T23:40:06.299Z,15.55
2023-02-05T23:42:32.884Z,15.62
2023-02-05T23:44:59.453Z,15.55
2023-02-05T23:47:26.097Z,15.58
2023-02-05T23:49:52.683Z,15.61
2023-02-05T23:52:19.329Z,15.61
2023-02-05T23:54:45.892Z,15.61
2023-02-05T23:57:12.506Z,15.58
2023-02-05T23:59:39.143Z,15.57
